createdAt,value
2023-08-20T00:00:58.766Z,95.7
2023-08-20T00:02:29.228Z,95.7
2023-08-20T00:03:59.917Z,95.7
2023-08-20T00:05:30.372Z,95.7
2023-08-20T00:07:00.789Z,95.7
2023-08-20T00:08:31.243Z,95.7
2023-08-20T00:10:01.748Z,95.7
2023-08-20T00:11:32.204Z,95.7
2023-08-20T00:13:02.724Z,95.7
2023-08-20T00:14:33.203Z,95.7
2023-08-20T00:16:03.702Z,95.7
2023-08-20T00:17:35.153Z,95.8
2023-08-20T00:19:06.314Z,95.7
2023-08-20T00:20:36.768Z,95.7
2023-08-20T00:22:07.261Z,95.7
2023-08-20T00:23:37.964Z,95.7
2023-08-20T00:25:08.501Z,95.7
2023-08-20T00:26:38.927Z,95.8
2023-08-20T00:28:09.347Z,95.8
2023-08-20T00:29:39.762Z,95.8
2023-08-20T00:31:10.383Z,95.7
2023-08-20T00:32:40.991Z,95.8
2023-08-20T00:34:11.956Z,95.8
2023-08-20T00:35:42.364Z,95.8
2023-08-20T00:37:12.807Z,95.8
2023-08-20T00:38:43.310Z,95.8
2023-08-20T00:40:14.036Z,95.8
2023-08-20T00:41:44.464Z,95.8
2023-08-20T00:42:01.486Z,95.8
2023-08-20T00:43:32.025Z,95.8
2023-08-20T00:45:02.525Z,95.8
2023-08-20T00:46:33.101Z,95.8
2023-08-20T00:48:03.648Z,95.8
2023-08-20T00:49:34.207Z,95.8
2023-08-20T00:51:04.752Z,95.8
2023-08-20T00:52:35.237Z,95.8
2023-08-20T00:54:05.790Z,95.8
2023-08-20T00:55:36.338Z,95.8
2023-08-20T00:57:06.856Z,95.8
2023-08-20T00:58:37.360Z,95.8
2023-08-20T01:00:07.885Z,95.8
2023-08-20T01:01:38.455Z,95.8
2023-08-20T01:03:09.165Z,95.8
2023-08-20T01:04:39.811Z,95.8
2023-08-20T01:06:10.365Z,95.8
2023-08-20T01:07:40.911Z,95.8
2023-08-20T01:09:11.438Z,95.8
2023-08-20T01:10:41.952Z,95.8
2023-08-20T01:12:12.460Z,95.8
2023-08-20T01:13:42.999Z,95.9
2023-08-20T01:15:13.529Z,95.8
2023-08-20T01:16:44.066Z,95.8
2023-08-20T01:18:15.687Z,95.9
2023-08-20T01:19:46.229Z,95.8
2023-08-20T01:21:16.683Z,95.8
2023-08-20T01:22:47.176Z,95.8
2023-08-20T01:24:17.698Z,95.8
2023-08-20T01:25:48.207Z,95.8
2023-08-20T01:27:18.720Z,95.8
2023-08-20T01:28:49.263Z,95.8
2023-08-20T01:30:19.774Z,95.8
2023-08-20T01:31:52.874Z,95.9
2023-08-20T01:33:23.378Z,95.9
2023-08-20T01:34:53.914Z,95.9
2023-08-20T01:36:24.424Z,95.8
2023-08-20T01:37:54.913Z,95.8
2023-08-20T01:39:25.447Z,95.9
2023-08-20T01:40:56.005Z,95.9
2023-08-20T01:42:26.529Z,95.9
2023-08-20T01:43:57.025Z,95.9
2023-08-20T01:45:27.546Z,95.8
2023-08-20T01:46:58.105Z,95.9
2023-08-20T01:48:28.585Z,95.8
2023-08-20T01:49:59.096Z,95.9
2023-08-20T01:51:29.627Z,95.9
2023-08-20T01:53:00.172Z,95.8
2023-08-20T01:54:30.674Z,95.9
2023-08-20T01:56:01.193Z,95.9
2023-08-20T01:57:31.862Z,95.9
2023-08-20T01:59:02.952Z,95.9
2023-08-20T02:00:33.490Z,95.9
2023-08-20T02:03:14.238Z,95.9
2023-08-20T02:04:44.810Z,95.9
2023-08-20T02:06:15.396Z,95.9
2023-08-20T02:07:45.905Z,95.9
2023-08-20T02:09:16.418Z,95.9
2023-08-20T02:10:46.862Z,95.9
2023-08-20T02:12:17.414Z,96
2023-08-20T02:13:47.886Z,96
2023-08-20T02:15:18.320Z,96
2023-08-20T02:16:48.910Z,96
2023-08-20T02:18:19.621Z,96
2023-08-20T02:19:50.110Z,96
2023-08-20T02:21:20.609Z,96
2023-08-20T02:22:51.115Z,96
2023-08-20T02:24:21.536Z,96
2023-08-20T02:25:51.965Z,95.9
2023-08-20T02:27:22.482Z,96
2023-08-20T02:28:52.903Z,96
2023-08-20T02:30:23.337Z,96
2023-08-20T02:31:53.855Z,95.9
2023-08-20T02:33:24.297Z,96
2023-08-20T02:34:54.800Z,96
2023-08-20T02:36:25.317Z,96
2023-08-20T02:37:55.734Z,95.9
2023-08-20T02:39:26.170Z,95.9
2023-08-20T02:40:56.680Z,96
2023-08-20T02:42:27.197Z,96
2023-08-20T02:43:57.658Z,96
2023-08-20T02:45:28.155Z,96
2023-08-20T02:46:58.770Z,96
2023-08-20T02:48:29.363Z,96
2023-08-20T02:49:59.833Z,96
2023-08-20T02:51:30.335Z,96
2023-08-20T02:53:00.779Z,96
2023-08-20T02:54:31.322Z,96
2023-08-20T02:56:01.809Z,96
2023-08-20T02:57:32.224Z,96
2023-08-20T02:59:03.463Z,96
2023-08-20T03:00:33.883Z,96
2023-08-20T03:02:04.298Z,96.1
2023-08-20T03:03:34.836Z,96
2023-08-20T03:05:05.350Z,96
2023-08-20T03:06:35.787Z,96
2023-08-20T03:08:06.327Z,96
2023-08-20T03:09:36.817Z,96
2023-08-20T03:11:07.343Z,96
2023-08-20T03:12:37.877Z,96
2023-08-20T03:14:08.388Z,96.1
2023-08-20T03:15:38.808Z,96
2023-08-20T03:17:09.343Z,96.1
2023-08-20T03:18:39.919Z,96
2023-08-20T03:20:10.377Z,96.1
2023-08-20T03:21:40.916Z,96
2023-08-20T03:23:11.422Z,96
2023-08-20T03:24:41.942Z,96.1
2023-08-20T03:26:12.512Z,96.1
2023-08-20T03:27:42.984Z,96.1
2023-08-20T03:29:13.411Z,96.1
2023-08-20T03:30:43.951Z,96.1
2023-08-20T03:32:14.492Z,96
2023-08-20T03:33:45.001Z,96
2023-08-20T03:35:15.405Z,96.1
2023-08-20T03:36:45.820Z,96
2023-08-20T03:38:16.341Z,96.1
2023-08-20T03:39:46.756Z,96
2023-08-20T03:41:17.186Z,96.1
2023-08-20T03:42:47.697Z,96.1
2023-08-20T03:44:18.120Z,96.1
2023-08-20T03:45:48.703Z,96.1
2023-08-20T03:47:19.274Z,96.1
2023-08-20T03:48:50.296Z,96.1
2023-08-20T03:50:21.154Z,96.1
2023-08-20T03:51:51.662Z,96.1
2023-08-20T03:52:08.797Z,96.1
2023-08-20T03:53:39.290Z,96.1
2023-08-20T03:55:09.720Z,96.1
2023-08-20T03:56:40.224Z,96.1
2023-08-20T03:58:10.652Z,96.1
2023-08-20T03:59:41.211Z,96.1
2023-08-20T04:01:11.742Z,96.1
2023-08-20T04:02:42.267Z,96.1
2023-08-20T04:04:13.020Z,96.1
2023-08-20T04:05:43.563Z,96.1
2023-08-20T04:07:14.024Z,96.1
2023-08-20T04:08:45.369Z,96.1
2023-08-20T04:10:15.852Z,96.1
2023-08-20T04:11:46.367Z,96.2
2023-08-20T04:13:16.799Z,96.1
2023-08-20T04:14:47.331Z,96.1
2023-08-20T04:16:17.793Z,96.1
2023-08-20T04:17:48.518Z,96.1
2023-08-20T04:19:19.161Z,96.1
2023-08-20T04:20:49.651Z,96.1
2023-08-20T04:22:20.134Z,96.2
2023-08-20T04:23:50.571Z,96.1
2023-08-20T04:25:21.078Z,96.1
2023-08-20T04:26:51.515Z,96.1
2023-08-20T04:28:21.924Z,96.2
2023-08-20T04:29:52.448Z,96.1
2023-08-20T04:31:23.027Z,96.2
2023-08-20T04:32:53.671Z,96.2
2023-08-20T04:34:24.137Z,96.2
2023-08-20T04:35:54.536Z,96.2
2023-08-20T04:37:25.070Z,96.2
2023-08-20T04:38:55.581Z,96.2
2023-08-20T04:40:26.103Z,96.2
2023-08-20T04:41:56.641Z,96.2
2023-08-20T04:43:27.145Z,96.2
2023-08-20T04:44:57.574Z,96.2
2023-08-20T04:46:28.032Z,96.2
2023-08-20T04:47:58.563Z,96.2
2023-08-20T04:49:29.054Z,96.2
2023-08-20T04:50:59.480Z,96.2
2023-08-20T04:52:29.985Z,96.2
2023-08-20T04:54:00.397Z,96.2
2023-08-20T04:55:30.824Z,96.2
2023-08-20T04:57:01.352Z,96.2
2023-08-20T04:58:31.868Z,96.2
2023-08-20T05:00:02.398Z,96.2
2023-08-20T05:01:32.818Z,96.2
2023-08-20T05:03:03.438Z,96.2
2023-08-20T05:04:34.223Z,96.2
2023-08-20T05:06:04.709Z,96.2
2023-08-20T05:07:35.208Z,96.2
2023-08-20T05:09:05.634Z,96.2
2023-08-20T05:10:36.159Z,96.3
2023-08-20T05:12:06.685Z,96.3
2023-08-20T05:13:37.190Z,96.3
2023-08-20T05:15:07.728Z,96.3
2023-08-20T05:16:38.400Z,96.3
2023-08-20T05:18:09.056Z,96.2
2023-08-20T05:19:39.517Z,96.2
2023-08-20T05:21:10.010Z,96.3
2023-08-20T05:22:40.433Z,96.3
2023-08-20T05:24:10.994Z,96.3
2023-08-20T05:25:41.480Z,96.3
2023-08-20T05:27:11.900Z,96.2
2023-08-20T05:28:42.328Z,96.3
2023-08-20T05:30:12.838Z,96.3
2023-08-20T05:31:43.260Z,96.3
2023-08-20T05:33:13.737Z,96.3
2023-08-20T05:34:44.242Z,96.3
2023-08-20T05:36:14.729Z,96.3
2023-08-20T05:37:45.251Z,96.3
2023-08-20T05:39:15.788Z,96.3
2023-08-20T05:40:46.343Z,96.3
2023-08-20T05:41:03.302Z,96.3
2023-08-20T05:42:34.137Z,96.3
2023-08-20T05:44:05.068Z,96.4
2023-08-20T05:45:35.577Z,96.3
2023-08-20T05:47:05.998Z,96.3
2023-08-20T05:48:36.426Z,96.3
2023-08-20T05:50:06.887Z,96.3
2023-08-20T05:51:37.359Z,96.4
2023-08-20T05:53:07.906Z,96.4
2023-08-20T05:54:38.406Z,96.3
2023-08-20T05:56:08.981Z,96.4
2023-08-20T05:57:39.605Z,96.4
2023-08-20T05:59:10.098Z,96.4
2023-08-20T06:00:40.634Z,96.4
2023-08-20T06:02:11.134Z,96.4
2023-08-20T06:03:41.638Z,96.3
2023-08-20T06:05:12.135Z,96.4
2023-08-20T06:06:42.754Z,96.4
2023-08-20T06:08:13.323Z,96.4
2023-08-20T06:09:43.735Z,96.4
2023-08-20T06:11:14.191Z,96.4
2023-08-20T06:12:44.702Z,96.4
2023-08-20T06:14:15.208Z,96.4
2023-08-20T06:15:45.624Z,96.4
2023-08-20T06:17:16.054Z,96.5
2023-08-20T06:18:46.571Z,96.5
2023-08-20T06:20:17.010Z,96.4
2023-08-20T06:21:47.421Z,96.4
2023-08-20T06:25:14.053Z,96.4
2023-08-20T06:26:44.495Z,96.4
2023-08-20T06:28:14.998Z,96.5
2023-08-20T06:29:45.417Z,96.5
2023-08-20T06:31:15.995Z,96.5
2023-08-20T06:32:46.622Z,96.5
2023-08-20T06:34:17.088Z,96.4
2023-08-20T06:35:47.552Z,96.5
2023-08-20T06:37:18.040Z,96.4
2023-08-20T06:38:48.445Z,96.5
2023-08-20T06:40:18.955Z,96.5
2023-08-20T06:41:49.410Z,96.5
2023-08-20T06:43:19.910Z,96.5
2023-08-20T06:44:50.334Z,96.5
2023-08-20T06:46:20.805Z,96.5
2023-08-20T06:47:51.403Z,96.5
2023-08-20T06:49:21.907Z,96.5
2023-08-20T06:50:52.593Z,96.5
2023-08-20T06:52:23.052Z,96.5
2023-08-20T06:53:53.489Z,96.5
2023-08-20T06:55:23.924Z,96.5
2023-08-20T06:56:54.414Z,96.5
2023-08-20T06:58:24.942Z,96.5
2023-08-20T06:59:55.375Z,96.5
2023-08-20T07:01:25.945Z,96.5
2023-08-20T07:02:56.462Z,96.5
2023-08-20T07:04:27.053Z,96.5
2023-08-20T07:05:57.586Z,96.5
2023-08-20T07:07:28.079Z,96.5
2023-08-20T07:08:58.532Z,96.5
2023-08-20T07:10:29.139Z,96.5
2023-08-20T07:11:59.765Z,96.5
2023-08-20T07:13:30.289Z,96.5
2023-08-20T07:15:00.789Z,96.5
2023-08-20T07:16:31.360Z,96.5
2023-08-20T07:18:01.889Z,96.5
2023-08-20T07:19:32.503Z,96.5
2023-08-20T07:21:03.100Z,96.5
2023-08-20T07:22:33.710Z,96.5
2023-08-20T07:24:04.153Z,96.5
2023-08-20T07:25:34.656Z,96.5
2023-08-20T07:27:05.083Z,96.5
2023-08-20T07:28:35.616Z,96.5
2023-08-20T07:30:06.123Z,96.5
2023-08-20T07:30:25.788Z,96.5
2023-08-20T07:31:56.326Z,96.5
2023-08-20T07:33:26.863Z,96.5
2023-08-20T07:34:57.352Z,96.5
2023-08-20T07:36:27.894Z,96.5
2023-08-20T07:37:59.275Z,96.5
2023-08-20T07:39:29.743Z,96.5
2023-08-20T07:41:00.283Z,96.5
2023-08-20T07:42:30.819Z,96.5
2023-08-20T07:44:01.480Z,96.6
2023-08-20T07:45:32.017Z,96.5
2023-08-20T07:47:02.684Z,96.5
2023-08-20T07:48:33.184Z,96.5
2023-08-20T07:50:03.710Z,96.5
2023-08-20T07:51:34.282Z,96.5
2023-08-20T07:53:04.762Z,96.5
2023-08-20T07:54:35.302Z,96.5
2023-08-20T07:56:05.799Z,96.5
2023-08-20T07:57:36.746Z,96.5
2023-08-20T07:59:07.790Z,96.5
2023-08-20T08:00:38.254Z,96.5
2023-08-20T14:03:21.598Z,96.2
2023-08-20T14:04:52.135Z,96.2
2023-08-20T14:06:22.697Z,96.3
2023-08-20T14:07:53.213Z,96.3
2023-08-20T14:09:23.740Z,96.3
2023-08-20T14:10:54.261Z,96.3
2023-08-20T14:12:24.778Z,96.4
2023-08-20T14:13:55.196Z,96.3
2023-08-20T14:15:25.786Z,96.3
2023-08-20T14:16:56.356Z,96.3
2023-08-20T14:18:26.804Z,96.3
2023-08-20T14:19:57.305Z,96.4
2023-08-20T14:21:27.845Z,96.3
2023-08-20T14:22:58.330Z,96.4
2023-08-20T14:24:28.765Z,96.4
2023-08-20T14:25:59.313Z,96.4
2023-08-20T14:27:29.790Z,96.4
2023-08-20T14:29:00.228Z,96.4
2023-08-20T14:30:30.646Z,96.4
2023-08-20T14:32:01.068Z,96.4
2023-08-20T14:33:31.647Z,96.4
2023-08-20T14:35:02.114Z,96.4
2023-08-20T14:36:32.523Z,96.4
2023-08-20T14:38:02.988Z,96.4
2023-08-20T14:39:33.614Z,96.4
2023-08-20T14:41:05.675Z,96.4
2023-08-20T14:42:36.953Z,96.4
2023-08-20T14:44:08.230Z,96.4
2023-08-20T14:45:38.738Z,96.4
2023-08-20T14:47:09.278Z,96.4
2023-08-20T14:48:39.844Z,96.4
2023-08-20T14:50:10.324Z,96.4
2023-08-20T14:51:40.845Z,96.4
2023-08-20T14:53:11.259Z,96.4
2023-08-20T14:54:41.774Z,96.4
2023-08-20T14:56:12.293Z,96.4
2023-08-20T14:57:53.715Z,96.4
2023-08-20T14:59:24.604Z,96.4
2023-08-20T15:00:55.292Z,96.4
2023-08-20T15:02:25.980Z,96.4
2023-08-20T15:03:56.647Z,96.4
2023-08-20T15:05:27.099Z,96.4
2023-08-20T15:06:57.523Z,96.5
2023-08-20T15:08:27.950Z,96.4
2023-08-20T15:09:58.369Z,96.4
2023-08-20T15:11:28.791Z,96.4
2023-08-20T15:12:59.308Z,96.4
2023-08-20T15:14:29.729Z,96.4
2023-08-20T15:16:00.298Z,96.4
2023-08-20T15:17:30.852Z,96.4
2023-08-20T15:19:01.463Z,96.4
2023-08-20T15:20:32.148Z,96.5
2023-08-20T15:22:02.665Z,96.4
2023-08-20T15:23:33.086Z,96.5
2023-08-20T15:25:03.515Z,96.4
2023-08-20T15:26:36.209Z,96.5
2023-08-20T15:28:06.688Z,96.4
2023-08-20T15:29:37.128Z,96.4
2023-08-20T15:31:07.783Z,96.5
2023-08-20T15:32:38.329Z,96.5
2023-08-20T15:34:09.050Z,96.5
2023-08-20T15:35:39.514Z,96.4
2023-08-20T15:37:10.026Z,96.5
2023-08-20T15:38:40.457Z,96.5
2023-08-20T15:40:10.982Z,96.5
2023-08-20T15:41:41.385Z,96.5
2023-08-20T15:43:11.813Z,96.5
2023-08-20T15:44:42.250Z,96.5
2023-08-20T15:46:12.775Z,96.5
2023-08-20T15:47:43.392Z,96.5
2023-08-20T15:49:14.049Z,96.5
2023-08-20T15:50:44.524Z,96.4
2023-08-20T15:52:31.886Z,96.5
2023-08-20T15:54:02.461Z,96.5
2023-08-20T15:55:33.060Z,96.5
2023-08-20T15:57:03.606Z,96.5
2023-08-20T15:58:34.130Z,96.5
2023-08-20T16:00:04.620Z,96.5
2023-08-20T16:01:35.242Z,96.5
2023-08-20T16:03:06.074Z,96.5
2023-08-20T16:04:36.789Z,96.5
2023-08-20T16:06:07.369Z,96.5
2023-08-20T16:07:38.607Z,96.5
2023-08-20T16:09:09.519Z,96.5
2023-08-20T16:10:40.099Z,96.5
2023-08-20T16:12:11.769Z,96.4
2023-08-20T16:13:42.324Z,96.5
2023-08-20T16:15:20.652Z,96.5
2023-08-20T16:16:51.216Z,96.5
2023-08-20T16:18:21.727Z,96.5
2023-08-20T16:19:53.084Z,96.5
2023-08-20T16:21:23.850Z,96.5
2023-08-20T16:22:54.383Z,96.5
2023-08-20T16:24:24.920Z,96.5
2023-08-20T16:25:55.529Z,96.5
2023-08-20T16:27:26.037Z,96.5
2023-08-20T16:28:59.037Z,96.5
2023-08-20T16:30:29.916Z,96.4
2023-08-20T16:32:00.490Z,96.5
2023-08-20T16:33:31.253Z,96.5
2023-08-20T16:35:01.990Z,96.5
2023-08-20T16:36:32.483Z,96.5
2023-08-20T16:38:02.986Z,96.5
2023-08-20T16:39:36.668Z,96.5
2023-08-20T16:41:07.211Z,96.5
2023-08-20T16:42:37.694Z,96.5
2023-08-20T16:44:08.382Z,96.5
2023-08-20T16:45:39.123Z,96.5
2023-08-20T16:47:09.845Z,96.5
2023-08-20T16:48:40.302Z,96.5
2023-08-20T16:50:10.989Z,96.5
2023-08-20T16:51:41.423Z,96.5
2023-08-20T16:53:11.984Z,96.5
2023-08-20T16:54:42.529Z,96.5
2023-08-20T16:56:13.158Z,96.5
2023-08-20T16:57:43.652Z,96.5
2023-08-20T16:59:14.206Z,96.5
2023-08-20T17:00:44.704Z,96.5
2023-08-20T17:02:15.233Z,96.5
2023-08-20T17:03:45.789Z,96.5
2023-08-20T17:05:16.394Z,96.5
2023-08-20T17:06:47.804Z,96.5
2023-08-20T17:08:18.305Z,96.5
2023-08-20T17:09:49.311Z,96.5
2023-08-20T17:11:21.165Z,96.5
2023-08-20T17:12:52.799Z,96.5
2023-08-20T17:14:24.491Z,96.5
2023-08-20T17:15:56.799Z,96.5
2023-08-20T17:17:28.121Z,96.5
2023-08-20T17:18:58.764Z,96.5
2023-08-20T17:20:29.342Z,96.5
2023-08-20T17:22:00.018Z,96.5
2023-08-20T17:23:33.474Z,96.5
2023-08-20T17:25:04.032Z,96.5
2023-08-20T17:26:34.555Z,96.5
2023-08-20T17:28:05.103Z,96.5
2023-08-20T17:29:35.633Z,96.5
2023-08-20T17:31:06.183Z,96.5
2023-08-20T17:32:37.444Z,96.6
2023-08-20T17:34:08.686Z,96.5
2023-08-20T17:35:39.236Z,96.5
2023-08-20T17:37:09.758Z,96.5
2023-08-20T17:38:40.277Z,96.4
2023-08-20T17:40:10.802Z,96.5
2023-08-20T17:41:41.395Z,96.5
2023-08-20T17:41:58.356Z,96.5
2023-08-20T17:43:28.849Z,96.5
2023-08-20T17:44:59.274Z,96.5
2023-08-20T17:46:29.843Z,96.5
2023-08-20T17:48:00.386Z,96.5
2023-08-20T17:49:30.953Z,96.5
2023-08-20T17:51:01.516Z,96.5
2023-08-20T17:52:32.099Z,96.5
2023-08-20T17:54:02.618Z,96.5
2023-08-20T17:55:33.155Z,96.5
2023-08-20T17:57:03.669Z,96.5
2023-08-20T17:58:34.180Z,96.5
2023-08-20T18:00:04.610Z,96.5
2023-08-20T18:01:35.138Z,96.5
2023-08-20T18:03:05.594Z,96.5
2023-08-20T18:04:36.061Z,96.5
2023-08-20T18:06:06.548Z,96.5
2023-08-20T18:07:37.007Z,96.5
2023-08-20T18:09:07.471Z,96.5
2023-08-20T18:10:37.979Z,96.5
2023-08-20T18:12:08.472Z,96.5
2023-08-20T18:13:38.900Z,96.5
2023-08-20T18:15:09.327Z,96.5
2023-08-20T18:16:40.002Z,96.5
2023-08-20T18:18:10.636Z,96.5
2023-08-20T18:19:41.207Z,96.5
2023-08-20T18:21:11.775Z,96.5
2023-08-20T18:22:42.239Z,96.5
2023-08-20T18:24:12.685Z,96.5
2023-08-20T18:25:43.191Z,96.6
2023-08-20T18:27:13.605Z,96.5
2023-08-20T18:28:44.144Z,96.5
2023-08-20T18:30:14.672Z,96.6
2023-08-20T18:31:45.171Z,96.5
2023-08-20T18:33:15.634Z,96.5
2023-08-20T18:34:46.155Z,96.6
2023-08-20T18:36:16.668Z,96.5
2023-08-20T18:37:47.171Z,96.5
2023-08-20T18:39:17.683Z,96.5
2023-08-20T18:40:48.206Z,96.5
2023-08-20T18:42:18.615Z,96.5
2023-08-20T18:43:49.043Z,96.5
2023-08-20T18:45:19.458Z,96.5
2023-08-20T18:46:49.895Z,96.5
2023-08-20T18:48:20.412Z,96.5
2023-08-20T18:49:50.835Z,96.6
2023-08-20T18:51:21.314Z,96.5
2023-08-20T18:52:51.990Z,96.5
2023-08-20T18:54:22.497Z,96.5
2023-08-20T18:55:52.925Z,96.5
2023-08-20T18:57:23.455Z,96.5
2023-08-20T18:58:53.966Z,96.5
2023-08-20T19:00:24.430Z,96.5
2023-08-20T19:01:54.985Z,96.5
2023-08-20T19:03:25.755Z,96.5
2023-08-20T19:04:56.469Z,96.5
2023-08-20T19:06:26.928Z,96.5
2023-08-20T19:07:57.434Z,96.6
2023-08-20T19:09:27.936Z,96.5
2023-08-20T19:10:58.502Z,96.6
2023-08-20T19:12:28.978Z,96.5
2023-08-20T19:14:02.824Z,96.5
2023-08-20T19:15:33.305Z,96.5
2023-08-20T19:17:03.823Z,96.6
2023-08-20T19:18:34.233Z,96.5
2023-08-20T19:20:04.669Z,96.5
2023-08-20T19:21:35.126Z,96.5
2023-08-20T19:23:05.604Z,96.5
2023-08-20T19:24:36.027Z,96.5
2023-08-20T19:26:06.588Z,96.5
2023-08-20T19:27:37.080Z,96.5
2023-08-20T19:29:07.634Z,96.5
2023-08-20T19:32:20.046Z,96.5
2023-08-20T19:33:52.761Z,96.4
2023-08-20T19:35:40.005Z,96.5
2023-08-20T19:37:14.921Z,96.5
2023-08-20T19:38:48.516Z,96.5
2023-08-20T19:40:19.174Z,96.5
2023-08-20T19:41:49.773Z,96.5
2023-08-20T19:43:20.413Z,96.6
2023-08-20T19:44:51.064Z,96.5
2023-08-20T19:46:22.108Z,96.5
2023-08-20T19:47:56.415Z,96.5
2023-08-20T19:49:27.033Z,96.5
2023-08-20T19:51:00.338Z,96.5
2023-08-20T19:52:30.951Z,96.5
2023-08-20T19:54:01.435Z,96.5
2023-08-20T19:55:31.991Z,96.5
2023-08-20T19:57:02.463Z,96.5
2023-08-20T19:58:33.425Z,96.5
2023-08-20T20:00:03.945Z,96.5
2023-08-20T20:01:34.436Z,96.5
2023-08-20T20:03:05.213Z,96.5
2023-08-20T20:04:35.962Z,96.5
2023-08-20T20:06:06.711Z,96.5
2023-08-20T20:07:37.283Z,96.4
2023-08-20T20:09:07.855Z,96.5
2023-08-20T20:10:38.368Z,96.5
2023-08-20T20:12:08.901Z,96.5
2023-08-20T20:13:39.405Z,96.5
2023-08-20T20:15:12.608Z,96.5
2023-08-20T20:16:43.173Z,96.5
2023-08-20T20:18:13.825Z,96.5
2023-08-20T20:19:44.339Z,96.5
2023-08-20T20:21:14.860Z,96.5
2023-08-20T20:22:45.305Z,96.5
2023-08-20T20:24:16.766Z,96.5
2023-08-20T20:25:47.253Z,96.5
2023-08-20T20:27:17.824Z,96.5
2023-08-20T20:28:50.560Z,96.4
2023-08-20T20:30:21.218Z,96.5
2023-08-20T20:31:51.735Z,96.5
2023-08-20T20:33:22.379Z,96.5
2023-08-20T20:34:52.840Z,96.5
2023-08-20T20:36:23.462Z,96.5
2023-08-20T20:37:54.009Z,96.5
2023-08-20T20:39:24.708Z,96.5
2023-08-20T20:40:55.187Z,96.5
2023-08-20T20:42:25.704Z,96.4
2023-08-20T20:43:56.311Z,96.4
2023-08-20T20:45:26.800Z,96.4
2023-08-20T20:46:57.235Z,96.5
2023-08-20T20:48:28.001Z,96.5
2023-08-20T20:50:01.745Z,96.4
2023-08-20T20:51:32.173Z,96.5
2023-08-20T20:53:02.753Z,96.5
2023-08-20T20:54:33.227Z,96.5
2023-08-20T20:56:03.783Z,96.5
2023-08-20T20:57:34.302Z,96.5
2023-08-20T20:59:04.796Z,96.4
2023-08-20T21:00:35.475Z,96.5
2023-08-20T21:03:27.525Z,96.5
2023-08-20T21:04:58.076Z,96.5
2023-08-20T21:06:28.571Z,96.5
2023-08-20T21:07:59.100Z,96.5
2023-08-20T21:09:29.716Z,96.5
2023-08-20T21:11:00.346Z,96.5
2023-08-20T21:12:30.877Z,96.5
2023-08-20T21:14:01.400Z,96.5
2023-08-20T21:15:31.919Z,96.5
2023-08-20T21:17:02.437Z,96.5
2023-08-20T21:18:32.940Z,96.5
2023-08-20T21:20:03.497Z,96.5
2023-08-20T21:21:34.016Z,96.5
2023-08-20T21:23:04.423Z,96.4
2023-08-20T21:24:35.009Z,96.5
2023-08-20T21:26:05.487Z,96.5
2023-08-20T21:27:35.886Z,96.5
2023-08-20T21:29:06.315Z,96.5
2023-08-20T21:30:36.914Z,96.5
2023-08-20T21:32:07.598Z,96.4
2023-08-20T21:33:38.107Z,96.5
2023-08-20T21:35:08.610Z,96.4
2023-08-20T21:36:39.135Z,96.4
2023-08-20T21:38:09.702Z,96.4
2023-08-20T21:39:40.247Z,96.4
2023-08-20T21:41:10.702Z,96.4
2023-08-20T21:42:41.667Z,96.4
2023-08-20T21:44:12.158Z,96.4
2023-08-20T21:45:42.655Z,96.4
2023-08-20T21:47:13.112Z,96.4
2023-08-20T21:48:43.619Z,96.4
2023-08-20T21:50:14.144Z,96.4
2023-08-20T21:51:44.666Z,96.5
2023-08-20T21:53:15.095Z,96.5
2023-08-20T21:54:45.625Z,96.4
2023-08-20T21:56:16.146Z,96.4
2023-08-20T21:57:46.660Z,96.5
2023-08-20T21:59:17.162Z,96.4
2023-08-20T22:00:47.605Z,96.4
2023-08-20T22:02:18.142Z,96.4
2023-08-20T22:03:48.901Z,96.4
2023-08-20T22:05:19.563Z,96.4
2023-08-20T22:06:50.011Z,96.4
2023-08-20T22:08:20.551Z,96.4
2023-08-20T22:09:51.202Z,96.4
2023-08-20T22:11:21.683Z,96.4
2023-08-20T22:12:52.198Z,96.4
2023-08-20T22:14:22.721Z,96.4
2023-08-20T22:15:53.270Z,96.4
2023-08-20T22:17:23.965Z,96.4
2023-08-20T22:18:54.490Z,96.4
2023-08-20T22:20:25.001Z,96.4
2023-08-20T22:21:55.542Z,96.4
2023-08-20T22:23:26.065Z,96.3
2023-08-20T22:24:56.639Z,96.4
2023-08-20T22:26:27.105Z,96.4
2023-08-20T22:27:57.623Z,96.4
2023-08-20T22:29:28.145Z,96.3
2023-08-20T22:30:58.671Z,96.4
2023-08-20T22:32:29.236Z,96.3
2023-08-20T22:33:59.707Z,96.4
2023-08-20T22:35:30.696Z,96.3
2023-08-20T22:37:04.032Z,96.3
2023-08-20T22:38:34.555Z,96.4
2023-08-20T22:40:05.110Z,96.3
2023-08-20T22:41:35.604Z,96.4
2023-08-20T22:43:06.188Z,96.3
2023-08-20T22:44:36.672Z,96.3
2023-08-20T22:46:07.264Z,96.4
2023-08-20T22:47:37.863Z,96.3
2023-08-20T22:49:08.453Z,96.4
2023-08-20T22:50:38.954Z,96.4
2023-08-20T22:52:09.458Z,96.4
2023-08-20T22:53:50.681Z,96.4
2023-08-20T22:55:21.287Z,96.4
2023-08-20T22:56:51.810Z,96.3
2023-08-20T22:58:22.337Z,96.4
2023-08-20T22:59:52.918Z,96.4
2023-08-20T23:01:23.518Z,96.4
2023-08-20T23:02:54.046Z,96.4
2023-08-20T23:04:24.822Z,96.3
2023-08-20T23:05:55.419Z,96.3
2023-08-20T23:07:25.913Z,96.3
2023-08-20T23:08:56.484Z,96.3
2023-08-20T23:10:27.128Z,96.3
2023-08-20T23:11:57.684Z,96.3
2023-08-20T23:13:28.267Z,96.3
2023-08-20T23:14:58.710Z,96.3
2023-08-20T23:16:29.621Z,96.3
2023-08-20T23:18:00.320Z,96.3
2023-08-20T23:19:30.921Z,96.3
2023-08-20T23:21:01.473Z,96.3
2023-08-20T23:22:31.971Z,96.3
2023-08-20T23:24:02.605Z,96.3
2023-08-20T23:25:33.256Z,96.3
2023-08-20T23:27:03.835Z,96.3
2023-08-20T23:28:34.362Z,96.3
2023-08-20T23:30:04.898Z,96.3
2023-08-20T23:31:35.440Z,96.3
2023-08-20T23:33:06.071Z,96.3
2023-08-20T23:34:36.647Z,96.3
2023-08-20T23:36:07.195Z,96.3
2023-08-20T23:37:37.760Z,96.3
2023-08-20T23:39:08.217Z,96.3
2023-08-20T23:40:38.939Z,96.3
2023-08-20T23:42:09.482Z,96.3
2023-08-20T23:43:39.994Z,96.3
2023-08-20T23:45:10.520Z,96.3
2023-08-20T23:46:49.513Z,96.3
2023-08-20T23:48:20.272Z,96.3
2023-08-20T23:49:50.869Z,96.3
2023-08-20T23:51:21.409Z,96.3
2023-08-20T23:52:51.902Z,96.3
2023-08-20T23:54:22.472Z,96.3
2023-08-20T23:55:53.018Z,96.3
2023-08-20T23:57:23.616Z,96.3
2023-08-20T23:58:54.094Z,96.3
